createdAt,value
2023-01-11T00:02:16.536Z,99151.66
2023-01-11T00:04:44.274Z,99148.16
2023-01-11T00:07:13.115Z,99118.16
2023-01-11T00:09:40.624Z,99131.47
2023-01-11T00:12:08.698Z,99143.38
2023-01-11T00:14:37.420Z,99140.63
2023-01-11T00:17:04.900Z,99131.34
2023-01-11T00:19:32.737Z,99146.69
2023-01-11T00:22:00.345Z,99162.88
2023-01-11T00:24:29.228Z,99144.97
2023-01-11T00:26:56.867Z,99138.03
2023-01-11T00:29:24.415Z,99158.22
2023-01-11T00:31:53.236Z,99154.06
2023-01-11T00:34:21.159Z,99153.84
2023-01-11T00:36:48.639Z,99143.59
2023-01-11T00:39:16.323Z,99114.59
2023-01-11T00:42:02.854Z,99110.88
2023-01-11T00:44:48.359Z,99106.94
2023-01-11T00:47:33.618Z,99116.97
2023-01-11T00:50:01.329Z,99111.00
2023-01-11T00:52:28.964Z,99124.03
2023-01-11T00:54:56.738Z,99110.88
2023-01-11T00:57:25.584Z,99107.50
2023-01-11T00:59:53.021Z,99103.16
2023-01-11T01:02:20.587Z,99115.38
2023-01-11T01:04:48.042Z,99116.72
2023-01-11T01:07:15.533Z,99109.41
2023-01-11T01:09:43.032Z,99116.81
2023-01-11T01:12:10.569Z,99109.56
2023-01-11T01:14:38.840Z,99125.34
2023-01-11T01:17:08.490Z,99127.41
2023-01-11T01:19:38.150Z,99113.03
2023-01-11T01:22:05.957Z,99116.16
2023-01-11T01:24:33.907Z,99126.19
2023-01-11T01:27:01.373Z,99115.53
2023-01-11T01:29:28.855Z,99130.47
2023-01-11T01:31:57.756Z,99123.91
2023-01-11T01:34:25.220Z,99119.97
2023-01-11T01:36:52.694Z,99108.53
2023-01-11T01:39:20.195Z,99111.31
2023-01-11T01:41:47.664Z,99107.97
2023-01-11T01:44:52.564Z,99105.72
2023-01-11T01:47:24.778Z,99108.31
2023-01-11T01:49:52.380Z,99104.03
2023-01-11T01:52:20.229Z,99107.97
2023-01-11T01:54:50.122Z,99100.31
2023-01-11T01:57:22.389Z,99080.28
2023-01-11T01:59:52.736Z,99103.75
2023-01-11T02:02:25.594Z,99081.47
2023-01-11T02:04:56.211Z,99085.97
2023-01-11T02:07:27.442Z,99073.44
2023-01-11T02:10:00.638Z,99079.97
2023-01-11T02:12:32.215Z,99085.59
2023-01-11T02:15:01.684Z,99071.53
2023-01-11T02:17:30.545Z,99087.31
2023-01-11T02:20:08.491Z,99074.13
2023-01-11T02:23:00.477Z,99077.25
2023-01-11T02:25:56.415Z,99057.75
2023-01-11T02:28:30.745Z,99059.44
2023-01-11T02:31:07.040Z,99064.66
2023-01-11T02:33:43.588Z,99060.47
2023-01-11T02:36:18.141Z,99056.59
2023-01-11T02:38:52.766Z,99052.00
2023-01-11T02:41:27.089Z,99054.69
2023-01-11T02:44:19.262Z,99045.88
2023-01-11T02:46:50.456Z,99048.06
2023-01-11T02:49:29.116Z,99040.47
2023-01-11T02:52:01.888Z,99044.22
2023-01-11T02:54:30.709Z,99039.38
2023-01-11T02:57:01.087Z,99042.66
2023-01-11T02:59:33.582Z,99036.81
2023-01-11T03:02:01.247Z,99033.06
2023-01-11T03:04:30.861Z,99042.03
2023-01-11T03:07:21.596Z,99038.16
2023-01-11T03:09:58.830Z,99043.78
2023-01-11T03:12:51.605Z,99030.28
2023-01-11T03:15:34.784Z,99025.50
2023-01-11T03:18:15.732Z,99031.06
2023-01-11T03:20:49.561Z,99016.09
2023-01-11T03:23:22.768Z,99019.19
2023-01-11T03:25:58.859Z,99012.50
2023-01-11T03:28:36.568Z,99007.75
2023-01-11T03:31:09.803Z,99014.84
2023-01-11T03:33:41.106Z,99016.41
2023-01-11T03:36:18.838Z,99011.09
2023-01-11T03:38:50.001Z,99014.47
2023-01-11T03:41:21.369Z,99013.13
2023-01-11T03:43:52.801Z,99015.22
2023-01-11T03:46:24.856Z,99014.91
2023-01-11T03:48:56.476Z,99011.72
2023-01-11T03:51:27.970Z,99008.44
2023-01-11T03:53:59.670Z,99015.09
2023-01-11T03:56:36.990Z,99012.25
2023-01-11T03:59:04.705Z,99012.19
2023-01-11T04:01:33.615Z,99019.53
2023-01-11T04:04:01.105Z,99016.00
2023-01-11T04:06:28.773Z,99008.66
2023-01-11T04:08:56.321Z,99009.16
2023-01-11T04:11:23.758Z,99001.44
2023-01-11T04:13:51.202Z,99002.94
2023-01-11T04:16:18.744Z,99003.31
2023-01-11T04:18:47.696Z,99002.22
2023-01-11T04:21:15.162Z,98999.28
2023-01-11T04:23:42.634Z,99002.44
2023-01-11T04:26:10.352Z,99003.38
2023-01-11T04:28:37.796Z,99004.09
2023-01-11T04:31:05.489Z,99007.28
2023-01-11T04:33:32.929Z,99000.50
2023-01-11T04:36:05.417Z,98990.97
2023-01-11T04:38:33.829Z,98996.50
2023-01-11T04:41:15.400Z,98986.91
2023-01-11T04:43:42.858Z,98980.06
2023-01-11T04:46:11.253Z,98988.94
2023-01-11T04:48:39.464Z,98983.41
2023-01-11T04:51:08.979Z,98986.59
2023-01-11T04:53:37.106Z,98981.50
2023-01-11T04:56:05.940Z,98984.25
2023-01-11T04:58:37.177Z,98973.16
2023-01-11T05:01:09.955Z,98980.25
2023-01-11T05:03:37.511Z,98972.09
2023-01-11T05:06:05.768Z,98976.00
2023-01-11T05:08:35.141Z,98973.53
2023-01-11T05:11:05.088Z,98972.91
2023-01-11T05:13:45.196Z,98969.47
2023-01-11T05:16:14.923Z,98966.50
2023-01-11T05:18:43.690Z,98970.88
2023-01-11T05:21:12.784Z,98972.66
2023-01-11T05:23:42.955Z,98974.56
2023-01-11T05:26:12.603Z,98970.97
2023-01-11T05:28:40.185Z,98967.56
2023-01-11T05:31:07.752Z,98957.22
2023-01-11T05:33:35.551Z,98962.75
2023-01-11T05:36:05.497Z,98977.22
2023-01-11T05:38:33.252Z,98974.22
2023-01-11T05:41:03.497Z,98969.22
2023-01-11T05:43:31.917Z,98974.53
2023-01-11T05:45:59.576Z,98963.63
2023-01-11T05:48:27.786Z,98974.44
2023-01-11T05:50:57.026Z,98964.06
2023-01-11T05:53:25.113Z,98978.88
2023-01-11T05:55:53.496Z,98963.72
2023-01-11T05:58:22.997Z,98968.94
2023-01-11T06:00:51.187Z,98969.56
2023-01-11T06:03:19.511Z,98972.13
2023-01-11T06:05:47.532Z,98952.75
2023-01-11T06:08:15.085Z,98963.38
2023-01-11T06:10:42.785Z,98967.56
2023-01-11T06:13:24.483Z,98960.63
2023-01-11T06:15:53.679Z,98953.94
2023-01-11T06:18:21.692Z,98965.94
2023-01-11T06:20:53.519Z,98973.31
2023-01-11T06:23:21.343Z,98972.28
2023-01-11T06:25:48.857Z,98981.19
2023-01-11T06:28:16.550Z,98969.38
2023-01-11T06:30:44.217Z,98970.41
2023-01-11T06:33:13.046Z,98972.34
2023-01-11T06:35:42.661Z,98967.78
2023-01-11T06:38:11.797Z,98963.81
2023-01-11T06:40:41.270Z,98959.16
2023-01-11T06:43:10.706Z,98958.78
2023-01-11T06:45:39.097Z,98973.19
2023-01-11T06:48:07.164Z,98971.22
2023-01-11T06:50:36.034Z,98977.41
2023-01-11T06:53:03.534Z,98974.47
2023-01-11T06:55:32.484Z,98963.16
2023-01-11T06:58:00.070Z,98973.09
2023-01-11T07:00:27.883Z,98976.63
2023-01-11T07:02:55.471Z,98974.56
2023-01-11T07:05:23.039Z,98980.81
2023-01-11T07:07:51.901Z,98985.03
2023-01-11T07:10:19.458Z,98989.38
2023-01-11T07:12:47.051Z,99001.75
2023-01-11T07:15:14.554Z,98998.56
2023-01-11T07:17:42.079Z,99013.72
2023-01-11T07:20:11.199Z,99016.38
2023-01-11T07:22:38.721Z,99022.00
2023-01-11T07:25:08.590Z,99019.88
2023-01-11T07:27:36.093Z,99021.44
2023-01-11T07:30:03.671Z,99024.34
2023-01-11T07:32:31.178Z,99029.84
2023-01-11T07:34:59.056Z,99033.19
2023-01-11T07:37:29.213Z,99044.25
2023-01-11T07:39:57.184Z,99038.50
2023-01-11T07:42:44.187Z,99043.31
2023-01-11T07:45:12.297Z,99045.78
2023-01-11T07:47:39.787Z,99050.84
2023-01-11T07:50:08.715Z,99058.00
2023-01-11T07:52:36.224Z,99054.72
2023-01-11T07:55:04.414Z,99067.41
2023-01-11T07:57:35.442Z,99071.47
2023-01-11T08:00:03.445Z,99068.66
2023-01-11T08:02:31.006Z,99079.34
2023-01-11T08:04:58.734Z,99085.88
2023-01-11T08:07:26.357Z,99065.94
2023-01-11T08:09:53.819Z,99024.56
2023-01-11T08:12:39.172Z,99039.06
2023-01-11T08:15:10.293Z,99053.47
2023-01-11T08:17:38.474Z,99071.22
2023-01-11T08:20:06.501Z,99070.59
2023-01-11T08:22:34.199Z,99076.00
2023-01-11T08:25:01.750Z,99082.84
2023-01-11T08:27:29.206Z,99084.19
2023-01-11T08:29:56.668Z,99084.47
2023-01-11T08:32:28.784Z,99091.00
2023-01-11T08:34:56.444Z,99091.53
2023-01-11T08:37:24.126Z,99102.50
2023-01-11T08:39:52.065Z,99088.50
2023-01-11T08:42:19.593Z,99088.75
2023-01-11T08:44:47.091Z,99098.91
2023-01-11T08:47:14.670Z,99091.53
2023-01-11T08:49:43.439Z,99095.75
2023-01-11T08:52:13.858Z,99108.91
2023-01-11T08:54:41.479Z,99111.47
2023-01-11T08:57:09.090Z,99115.56
2023-01-11T08:59:36.551Z,99123.00
2023-01-11T09:02:06.329Z,99136.28
2023-01-11T09:04:34.843Z,99136.50
2023-01-11T09:07:03.962Z,99117.91
2023-01-11T09:09:31.924Z,99138.53
2023-01-11T09:12:04.734Z,99147.66
2023-01-11T09:14:33.157Z,99150.31
2023-01-11T09:17:00.771Z,99155.19
2023-01-11T09:19:28.277Z,99164.44
2023-01-11T09:22:00.811Z,99163.69
2023-01-11T09:24:29.931Z,99168.19
2023-01-11T09:26:59.248Z,99177.31
2023-01-11T09:29:27.168Z,99178.00
2023-01-11T09:31:54.880Z,99197.22
2023-01-11T09:34:23.114Z,99203.16
2023-01-11T09:36:50.671Z,99205.41
2023-01-11T09:39:20.417Z,99208.41
2023-01-11T09:42:12.915Z,99198.13
2023-01-11T09:44:50.705Z,99211.44
2023-01-11T09:47:26.262Z,99212.00
2023-01-11T09:49:57.172Z,99214.41
2023-01-11T09:52:29.752Z,99220.00
2023-01-11T09:54:58.516Z,99231.59
2023-01-11T09:57:39.375Z,99233.47
2023-01-11T10:00:16.323Z,99235.34
2023-01-11T10:02:59.877Z,99234.66
2023-01-11T10:05:42.000Z,99244.97
2023-01-11T10:18:22.096Z,99274.19
2023-01-11T10:18:28.855Z,99254.63
2023-01-11T10:20:24.621Z,99245.72
2023-01-11T10:22:57.405Z,99242.97
2023-01-11T10:25:33.514Z,99251.28
2023-01-11T10:28:07.385Z,99258.47
2023-01-11T10:30:53.613Z,99248.72
2023-01-11T10:33:46.286Z,99243.22
2023-01-11T10:36:34.594Z,99254.22
2023-01-11T10:39:21.666Z,99264.16
2023-01-11T10:41:59.867Z,99259.88
2023-01-11T10:44:35.650Z,99259.97
2023-01-11T10:47:06.219Z,99258.66
2023-01-11T10:49:44.425Z,99271.28
2023-01-11T10:52:26.653Z,99273.97
2023-01-11T10:54:57.166Z,99278.06
2023-01-11T10:57:39.644Z,99267.03
2023-01-11T11:00:36.409Z,99274.94
2023-01-11T11:03:19.418Z,99268.06
2023-01-11T11:05:53.731Z,99263.31
2023-01-11T11:08:29.183Z,99261.03
2023-01-11T11:11:01.867Z,99274.81
2023-01-11T11:13:47.108Z,99268.53
2023-01-11T11:16:31.279Z,99279.59
2023-01-11T11:19:00.353Z,99277.81
2023-01-11T11:21:33.588Z,99273.00
2023-01-11T11:24:04.720Z,99279.75
2023-01-11T11:26:37.272Z,99279.50
2023-01-11T11:29:07.456Z,99294.09
2023-01-11T11:31:37.299Z,99301.84
2023-01-11T11:34:08.973Z,99297.53
2023-01-11T11:36:44.238Z,99309.03
2023-01-11T11:39:18.049Z,99306.97
2023-01-11T11:41:50.441Z,99315.41
2023-01-11T11:44:20.334Z,99324.19
2023-01-11T11:47:06.547Z,99310.28
2023-01-11T11:49:36.507Z,99320.78
2023-01-11T11:52:06.285Z,99323.53
2023-01-11T11:54:36.494Z,99310.53
2023-01-11T11:57:15.621Z,99321.56
2023-01-11T11:59:47.287Z,99331.28
2023-01-11T12:02:24.473Z,99327.41
2023-01-11T12:04:54.623Z,99325.50
2023-01-11T12:07:25.003Z,99329.97
2023-01-11T12:10:00.729Z,99322.72
2023-01-11T12:12:29.596Z,99315.53
2023-01-11T12:15:20.434Z,99312.25
2023-01-11T12:17:48.815Z,99312.75
2023-01-11T12:20:34.119Z,99311.69
2023-01-11T12:23:16.693Z,99319.47
2023-01-11T12:25:59.795Z,99320.06
2023-01-11T12:28:42.158Z,99317.00
2023-01-11T12:31:17.500Z,99308.53
2023-01-11T12:33:52.834Z,99303.13
2023-01-11T12:36:29.305Z,99309.41
2023-01-11T12:39:06.743Z,99303.47
2023-01-11T12:41:58.745Z,99301.91
2023-01-11T12:44:39.990Z,99300.28
2023-01-11T12:47:28.491Z,99314.13
2023-01-11T12:50:05.875Z,99316.16
2023-01-11T12:52:51.797Z,99314.28
2023-01-11T12:55:44.567Z,99309.44
2023-01-11T12:58:17.353Z,99316.19
2023-01-11T13:00:59.929Z,99324.84
2023-01-11T13:04:04.020Z,99323.88
2023-01-11T13:06:39.202Z,99318.44
2023-01-11T13:09:16.751Z,99322.59
2023-01-11T13:11:52.880Z,99337.16
2023-01-11T13:14:36.047Z,99337.63
2023-01-11T13:17:19.089Z,99330.09
2023-01-11T13:19:56.177Z,99336.72
2023-01-11T13:22:29.141Z,99335.84
2023-01-11T13:25:02.338Z,99338.25
2023-01-11T13:27:31.755Z,99328.50
2023-01-11T13:30:02.031Z,99345.56
2023-01-11T13:32:35.754Z,99348.75
2023-01-11T13:35:09.877Z,99354.44
2023-01-11T13:37:42.183Z,99354.44
2023-01-11T13:40:19.880Z,99346.69
2023-01-11T13:42:51.906Z,99355.16
2023-01-11T13:45:23.345Z,99351.72
2023-01-11T13:47:55.552Z,99357.81
2023-01-11T13:50:29.172Z,99363.31
2023-01-11T13:53:03.928Z,99361.56
2023-01-11T13:55:38.039Z,99350.94
2023-01-11T13:58:12.132Z,99356.88
2023-01-11T14:00:42.639Z,99361.41
2023-01-11T14:03:21.680Z,99371.13
2023-01-11T14:06:00.195Z,99371.19
2023-01-11T14:08:53.574Z,99371.44
2023-01-11T14:11:32.147Z,99375.78
2023-01-11T14:14:16.265Z,99382.06
2023-01-11T14:17:07.348Z,99379.34
2023-01-11T14:19:42.199Z,99388.88
2023-01-11T14:22:20.791Z,99394.50
2023-01-11T14:24:58.220Z,99390.06
2023-01-11T14:27:52.907Z,99385.75
2023-01-11T14:30:41.428Z,99395.75
2023-01-11T14:33:48.685Z,99405.16
2023-01-11T14:36:34.939Z,99406.50
2023-01-11T14:39:23.910Z,99402.56
2023-01-11T14:42:29.269Z,99407.41
2023-01-11T14:45:19.640Z,99409.00
2023-01-11T14:48:06.131Z,99421.34
2023-01-11T14:50:49.587Z,99419.28
2023-01-11T14:53:20.384Z,99412.94
2023-01-11T14:55:49.091Z,99423.78
2023-01-11T14:58:21.152Z,99429.59
2023-01-11T15:01:11.945Z,99429.84
2023-01-11T15:03:57.474Z,99422.47
2023-01-11T15:06:25.337Z,99436.94
2023-01-11T15:08:55.895Z,99431.56
2023-01-11T15:11:30.037Z,99427.47
2023-01-11T15:13:59.664Z,99428.19
2023-01-11T15:16:47.792Z,99428.59
2023-01-11T15:19:27.279Z,99435.59
2023-01-11T15:21:56.990Z,99420.63
2023-01-11T15:24:27.761Z,99426.06
2023-01-11T15:26:56.867Z,99424.00
2023-01-11T15:29:28.082Z,99430.03
2023-01-11T15:32:16.321Z,99436.22
2023-01-11T15:34:46.388Z,99428.63
2023-01-11T15:37:34.403Z,99427.84
2023-01-11T15:40:06.502Z,99434.72
2023-01-11T15:43:22.114Z,99432.69
2023-01-11T15:46:26.867Z,99439.59
2023-01-11T15:49:26.265Z,99440.94
2023-01-11T15:52:19.725Z,99445.47
2023-01-11T15:55:19.469Z,99443.69
2023-01-11T15:58:12.077Z,99439.59
2023-01-11T16:01:09.625Z,99451.03
2023-01-11T16:03:57.920Z,99447.53
2023-01-11T16:06:52.848Z,99442.47
2023-01-11T16:09:31.925Z,99447.84
2023-01-11T16:12:15.567Z,99441.56
2023-01-11T16:15:07.715Z,99454.09
2023-01-11T16:17:38.290Z,99442.03
2023-01-11T16:20:14.588Z,99435.53
2023-01-11T16:22:50.498Z,99440.22
2023-01-11T16:25:18.696Z,99438.88
2023-01-11T16:27:52.979Z,99444.69
2023-01-11T16:30:21.128Z,99441.41
2023-01-11T16:32:48.710Z,99446.66
2023-01-11T16:35:19.215Z,99443.06
2023-01-11T16:37:51.724Z,99456.34
2023-01-11T16:40:24.322Z,99460.97
2023-01-11T16:42:55.233Z,99465.34
2023-01-11T16:45:25.065Z,99479.50
2023-01-11T16:48:04.284Z,99486.97
2023-01-11T16:50:34.905Z,99488.75
2023-01-11T16:53:06.071Z,99493.84
2023-01-11T16:55:37.624Z,99500.19
2023-01-11T16:58:07.964Z,99501.19
2023-01-11T17:00:39.412Z,99504.78
2023-01-11T17:03:25.340Z,99499.03
2023-01-11T17:05:58.452Z,99498.81
2023-01-11T17:08:30.207Z,99506.78
2023-01-11T17:11:02.338Z,99503.78
2023-01-11T17:13:55.365Z,99511.47
2023-01-11T17:16:26.040Z,99510.81
2023-01-11T17:18:55.124Z,99509.97
2023-01-11T17:21:25.600Z,99507.66
2023-01-11T17:23:59.935Z,99512.63
2023-01-11T17:26:30.435Z,99515.41
2023-01-11T17:29:00.136Z,99511.81
2023-01-11T17:31:30.807Z,99525.91
2023-01-11T17:34:03.495Z,99522.91
2023-01-11T17:36:32.239Z,99520.59
2023-01-11T17:39:02.407Z,99521.88
2023-01-11T17:41:48.214Z,99530.00
2023-01-11T17:44:36.583Z,99534.00
2023-01-11T17:47:07.669Z,99541.22
2023-01-11T17:49:37.378Z,99539.97
2023-01-11T17:52:21.076Z,99541.25
2023-01-11T17:55:00.948Z,99530.34
2023-01-11T17:57:28.736Z,99525.31
2023-01-11T18:00:18.671Z,99526.03
2023-01-11T18:02:47.224Z,99517.00
2023-01-11T18:05:17.428Z,99522.19
2023-01-11T18:07:48.079Z,99518.84
2023-01-11T18:10:22.085Z,99521.88
2023-01-11T18:12:50.715Z,99527.19
2023-01-11T18:15:24.158Z,99523.59
2023-01-11T18:17:56.573Z,99518.41
2023-01-11T18:20:39.013Z,99518.47
2023-01-11T18:23:22.548Z,99522.88
2023-01-11T18:26:11.545Z,99521.34
2023-01-11T18:28:39.092Z,99522.59
2023-01-11T18:31:06.745Z,99518.47
2023-01-11T18:33:35.064Z,99516.44
2023-01-11T18:36:04.512Z,99526.63
2023-01-11T18:38:33.912Z,99518.03
2023-01-11T18:41:21.443Z,99515.53
2023-01-11T18:43:49.025Z,99507.66
2023-01-11T18:46:16.565Z,99503.19
2023-01-11T18:48:44.124Z,99498.28
2023-01-11T18:51:17.387Z,99501.63
2023-01-11T18:53:45.018Z,99499.09
2023-01-11T18:56:16.117Z,99511.59
2023-01-11T18:58:43.653Z,99507.16
2023-01-11T19:01:11.758Z,99511.16
2023-01-11T19:03:39.381Z,99515.38
2023-01-11T19:06:09.684Z,99509.41
2023-01-11T19:08:37.384Z,99503.28
2023-01-11T19:11:05.086Z,99506.75
2023-01-11T19:13:33.911Z,99492.69
2023-01-11T19:16:01.618Z,99502.56
2023-01-11T19:18:29.485Z,99494.41
2023-01-11T19:21:01.752Z,99505.94
2023-01-11T19:23:29.484Z,99493.19
2023-01-11T19:25:57.717Z,99501.84
2023-01-11T19:28:25.288Z,99476.66
2023-01-11T19:30:54.243Z,99474.53
2023-01-11T19:33:21.868Z,99476.81
2023-01-11T19:35:49.856Z,99477.28
2023-01-11T19:38:18.238Z,99482.44
2023-01-11T19:40:45.833Z,99473.19
2023-01-11T19:43:13.330Z,99477.00
2023-01-11T19:45:40.946Z,99491.28
2023-01-11T19:48:10.802Z,99479.69
2023-01-11T19:50:38.259Z,99469.59
2023-01-11T19:53:08.548Z,99468.59
2023-01-11T19:55:36.051Z,99477.03
2023-01-11T19:58:04.527Z,99479.22
2023-01-11T20:00:32.741Z,99473.00
2023-01-11T20:03:05.684Z,99477.75
2023-01-11T20:05:34.589Z,99476.81
2023-01-11T20:08:02.090Z,99467.25
2023-01-11T20:10:29.546Z,99449.09
2023-01-11T20:12:57.020Z,99449.63
2023-01-11T20:15:24.748Z,99446.25
2023-01-11T20:17:52.292Z,99447.28
2023-01-11T20:20:20.182Z,99456.25
2023-01-11T20:22:49.036Z,99453.88
2023-01-11T20:25:17.631Z,99444.59
2023-01-11T20:27:45.116Z,99437.84
2023-01-11T20:30:13.163Z,99440.72
2023-01-11T20:32:42.483Z,99436.91
2023-01-11T20:35:10.940Z,99426.50
2023-01-11T20:37:38.779Z,99414.44
2023-01-11T20:40:11.805Z,99419.34
2023-01-11T20:42:40.027Z,99412.19
2023-01-11T20:45:08.765Z,99410.13
2023-01-11T20:47:36.437Z,99404.78
2023-01-11T20:50:04.023Z,99402.78
2023-01-11T20:52:31.718Z,99407.44
2023-01-11T20:54:59.208Z,99393.38
2023-01-11T20:57:29.316Z,99400.25
2023-01-11T20:59:57.516Z,99402.06
2023-01-11T21:02:25.086Z,99394.81
2023-01-11T21:04:52.611Z,99387.63
2023-01-11T21:07:20.252Z,99397.31
2023-01-11T21:09:47.882Z,99390.78
2023-01-11T21:12:17.451Z,99410.19
2023-01-11T21:14:46.291Z,99399.09
2023-01-11T21:17:13.840Z,99402.69
2023-01-11T21:19:43.540Z,99404.56
2023-01-11T21:22:11.165Z,99397.38
2023-01-11T21:24:40.884Z,99395.41
2023-01-11T21:27:08.984Z,99397.81
2023-01-11T21:29:36.640Z,99404.22
2023-01-11T21:32:06.038Z,99413.31
2023-01-11T21:34:33.558Z,99408.09
2023-01-11T21:37:01.084Z,99394.88
2023-01-11T21:39:28.756Z,99385.47
2023-01-11T21:41:57.343Z,99399.97
2023-01-11T21:44:29.304Z,99376.44
2023-01-11T21:46:56.890Z,99386.69
2023-01-11T21:49:25.777Z,99367.63
2023-01-11T21:51:53.756Z,99367.22
2023-01-11T21:54:21.656Z,99356.34
2023-01-11T21:56:50.065Z,99341.22
2023-01-11T21:59:18.433Z,99351.31
2023-01-11T22:01:49.267Z,99344.41
2023-01-11T22:04:19.169Z,99342.66
2023-01-11T22:06:51.255Z,99343.50
2023-01-11T22:09:19.876Z,99331.91
2023-01-11T22:11:47.393Z,99332.28
2023-01-11T22:14:14.835Z,99328.41
2023-01-11T22:16:42.347Z,99323.66
2023-01-11T22:19:10.289Z,99324.72
2023-01-11T22:21:38.608Z,99329.97
2023-01-11T22:24:10.483Z,99317.41
2023-01-11T22:26:38.835Z,99324.78
2023-01-11T22:29:15.647Z,99329.63
2023-01-11T22:31:46.694Z,99319.81
2023-01-11T22:34:15.814Z,99329.63
2023-01-11T22:36:44.458Z,99342.09
2023-01-11T22:39:15.006Z,99337.19
2023-01-11T22:41:45.320Z,99356.28
2023-01-11T22:44:13.641Z,99345.41
2023-01-11T22:46:41.366Z,99345.25
2023-01-11T22:49:09.285Z,99335.59
2023-01-11T22:51:37.129Z,99338.00
2023-01-11T22:54:05.419Z,99361.13
2023-01-11T22:56:34.351Z,99349.97
2023-01-11T22:59:02.020Z,99336.09
2023-01-11T23:01:31.673Z,99347.44
2023-01-11T23:03:59.968Z,99357.56
2023-01-11T23:06:29.495Z,99352.28
2023-01-11T23:08:58.116Z,99347.41
2023-01-11T23:11:45.736Z,99343.03
2023-01-11T23:14:17.684Z,99348.81
2023-01-11T23:16:46.979Z,99349.88
2023-01-11T23:19:17.274Z,99343.22
2023-01-11T23:21:46.193Z,99331.78
2023-01-11T23:24:16.096Z,99325.91
2023-01-11T23:26:43.774Z,99325.19
2023-01-11T23:29:11.546Z,99336.19
2023-01-11T23:31:40.450Z,99332.06
2023-01-11T23:34:08.807Z,99318.03
2023-01-11T23:36:38.269Z,99322.25
2023-01-11T23:39:06.788Z,99317.63
2023-01-11T23:41:52.142Z,99327.22
2023-01-11T23:44:19.965Z,99318.31
2023-01-11T23:47:06.295Z,99338.72
2023-01-11T23:49:34.043Z,99324.97
2023-01-11T23:52:02.014Z,99335.78
2023-01-11T23:54:31.827Z,99323.16
2023-01-11T23:57:00.444Z,99341.38
2023-01-11T23:59:28.224Z,99334.88
